createdAt,value
2022-11-29T00:00:27.476Z,77.68
2022-11-29T00:02:55.291Z,77.54
2022-11-29T00:05:24.260Z,77.56
2022-11-29T00:07:51.956Z,77.41
2022-11-29T00:10:19.704Z,78.03
2022-11-29T00:12:47.422Z,77.60
2022-11-29T00:15:15.072Z,77.66
2022-11-29T00:17:43.640Z,77.89
2022-11-29T00:20:11.714Z,77.61
2022-11-29T00:22:39.364Z,77.67
2022-11-29T00:25:07.410Z,78.12
2022-11-29T00:27:35.440Z,77.69
2022-11-29T00:30:03.148Z,77.70
2022-11-29T00:32:30.813Z,77.32
2022-11-29T00:34:59.741Z,77.70
2022-11-29T00:37:27.834Z,78.04
2022-11-29T00:39:55.844Z,77.67
2022-11-29T00:42:24.899Z,77.58
2022-11-29T00:44:52.487Z,78.26
2022-11-29T00:47:20.169Z,77.76
2022-11-29T00:49:47.845Z,77.84
2022-11-29T00:52:15.834Z,77.74
2022-11-29T00:54:44.499Z,77.85
2022-11-29T00:57:12.558Z,77.67
2022-11-29T00:59:40.161Z,77.54
2022-11-29T01:02:07.912Z,77.95
2022-11-29T01:04:35.951Z,78.16
2022-11-29T01:07:03.558Z,77.65
2022-11-29T01:09:31.234Z,77.81
2022-11-29T01:11:58.886Z,77.75
2022-11-29T01:14:26.618Z,78.34
2022-11-29T01:16:54.627Z,77.81
2022-11-29T01:19:25.358Z,78.22
2022-11-29T01:21:52.999Z,78.17
2022-11-29T01:24:22.354Z,78.09
2022-11-29T01:26:49.946Z,78.26
2022-11-29T01:29:17.944Z,77.88
2022-11-29T01:31:46.874Z,78.10
2022-11-29T01:34:14.456Z,77.87
2022-11-29T01:36:42.055Z,78.41
2022-11-29T01:39:09.714Z,78.00
2022-11-29T01:41:38.141Z,78.39
2022-11-29T01:44:07.530Z,77.85
2022-11-29T01:46:35.119Z,78.07
2022-11-29T01:49:02.655Z,78.01
2022-11-29T01:51:30.210Z,78.55
2022-11-29T01:53:58.158Z,78.04
2022-11-29T01:56:25.708Z,77.82
2022-11-29T01:58:53.271Z,77.88
2022-11-29T02:01:20.983Z,78.17
2022-11-29T02:03:48.898Z,78.04
2022-11-29T02:06:16.907Z,77.84
2022-11-29T02:08:44.784Z,77.99
2022-11-29T02:11:12.355Z,78.31
2022-11-29T02:13:39.939Z,78.18
2022-11-29T02:16:07.636Z,78.42
2022-11-29T02:18:35.577Z,78.35
2022-11-29T02:21:04.028Z,77.95
2022-11-29T02:23:31.625Z,78.24
2022-11-29T02:25:59.486Z,77.81
2022-11-29T02:28:27.094Z,78.05
2022-11-29T02:30:55.099Z,78.33
2022-11-29T02:33:22.722Z,78.48
2022-11-29T02:35:50.324Z,77.86
2022-11-29T02:38:17.933Z,78.41
2022-11-29T02:40:45.531Z,78.09
2022-11-29T02:43:13.537Z,78.12
2022-11-29T02:45:41.163Z,78.48
2022-11-29T02:48:08.754Z,78.64
2022-11-29T02:50:36.341Z,78.30
2022-11-29T02:53:03.952Z,78.52
2022-11-29T02:55:31.575Z,77.96
2022-11-29T02:57:59.704Z,78.63
2022-11-29T03:00:27.386Z,78.13
2022-11-29T03:02:55.009Z,78.21
2022-11-29T03:05:22.604Z,78.53
2022-11-29T03:07:50.912Z,78.62
2022-11-29T03:10:20.225Z,78.32
2022-11-29T03:12:47.764Z,78.29
2022-11-29T03:15:15.382Z,78.51
2022-11-29T03:17:42.910Z,78.58
2022-11-29T03:20:10.502Z,78.61
2022-11-29T03:22:39.055Z,78.19
2022-11-29T03:25:06.623Z,78.51
2022-11-29T03:27:34.201Z,78.64
2022-11-29T03:30:02.091Z,78.70
2022-11-29T03:32:30.059Z,78.75
2022-11-29T03:34:57.803Z,78.42
2022-11-29T03:37:25.418Z,78.70
2022-11-29T03:39:52.962Z,79.15
2022-11-29T03:42:20.526Z,78.60
2022-11-29T03:44:48.163Z,78.75
2022-11-29T03:47:15.917Z,78.71
2022-11-29T03:49:43.538Z,78.93
2022-11-29T03:52:11.454Z,79.21
2022-11-29T03:54:39.016Z,78.45
2022-11-29T03:57:06.902Z,79.19
2022-11-29T03:59:35.813Z,79.27
2022-11-29T04:02:03.961Z,78.94
2022-11-29T04:04:31.568Z,79.07
2022-11-29T04:06:59.141Z,79.12
2022-11-29T04:09:27.134Z,78.94
2022-11-29T04:11:59.206Z,79.35
2022-11-29T04:14:26.908Z,79.17
2022-11-29T04:16:54.454Z,79.17
2022-11-29T04:19:22.104Z,79.20
2022-11-29T04:21:50.026Z,79.41
2022-11-29T04:24:17.683Z,79.12
2022-11-29T04:26:45.226Z,79.54
2022-11-29T04:29:12.848Z,79.68
2022-11-29T04:31:40.432Z,79.30
2022-11-29T04:34:08.664Z,79.80
2022-11-29T04:36:36.310Z,79.94
2022-11-29T04:39:03.862Z,79.61
2022-11-29T04:41:31.412Z,79.34
2022-11-29T04:43:59.050Z,79.81
2022-11-29T04:46:26.845Z,79.70
2022-11-29T04:48:54.449Z,80.12
2022-11-29T04:51:22.040Z,79.60
2022-11-29T04:53:49.634Z,80.19
2022-11-29T04:56:17.500Z,79.73
2022-11-29T04:58:45.449Z,79.99
2022-11-29T05:01:15.130Z,79.94
2022-11-29T05:03:44.148Z,80.00
2022-11-29T05:06:13.295Z,79.74
2022-11-29T05:08:40.845Z,79.91
2022-11-29T05:11:08.803Z,80.03
2022-11-29T05:13:36.422Z,79.75
2022-11-29T05:16:04.051Z,80.07
2022-11-29T05:18:31.663Z,80.23
2022-11-29T05:21:08.180Z,80.50
2022-11-29T05:23:36.413Z,80.21
2022-11-29T05:26:04.657Z,80.29
2022-11-29T05:28:32.258Z,80.58
2022-11-29T05:30:59.876Z,80.34
2022-11-29T05:33:27.573Z,80.27
2022-11-29T05:35:55.766Z,80.00
2022-11-29T05:38:23.372Z,80.46
2022-11-29T05:40:51.335Z,80.49
2022-11-29T05:43:18.977Z,80.54
2022-11-29T05:45:46.601Z,80.39
2022-11-29T05:48:14.576Z,80.23
2022-11-29T05:50:42.164Z,80.50
2022-11-29T05:53:09.797Z,80.62
2022-11-29T05:55:37.470Z,80.45
2022-11-29T05:58:05.078Z,80.80
2022-11-29T06:00:33.029Z,80.44
2022-11-29T06:03:04.019Z,80.75
2022-11-29T06:05:31.665Z,80.55
2022-11-29T06:07:59.317Z,80.72
2022-11-29T06:10:27.047Z,80.76
2022-11-29T06:12:55.404Z,80.26
2022-11-29T06:15:24.361Z,80.69
2022-11-29T06:17:52.976Z,80.14
2022-11-29T06:20:20.730Z,80.50
2022-11-29T06:22:49.289Z,80.31
2022-11-29T06:25:17.700Z,80.35
2022-11-29T06:27:48.221Z,80.50
2022-11-29T06:30:15.831Z,80.56
2022-11-29T06:32:44.277Z,80.30
2022-11-29T06:35:11.813Z,80.99
2022-11-29T06:37:39.790Z,80.53
2022-11-29T06:40:08.494Z,80.93
2022-11-29T06:42:36.042Z,80.50
2022-11-29T06:45:03.760Z,80.59
2022-11-29T06:47:31.420Z,80.91
2022-11-29T06:49:59.358Z,80.20
2022-11-29T06:52:27.596Z,80.29
2022-11-29T06:54:55.232Z,80.55
2022-11-29T06:57:23.096Z,80.72
2022-11-29T06:59:50.855Z,80.57
2022-11-29T07:02:19.146Z,80.60
2022-11-29T07:04:47.657Z,80.72
2022-11-29T07:07:15.829Z,80.71
2022-11-29T07:09:43.904Z,80.69
2022-11-29T07:12:11.523Z,80.50
2022-11-29T07:14:39.568Z,80.17
2022-11-29T07:17:07.265Z,80.60
2022-11-29T07:19:34.918Z,80.72
2022-11-29T07:22:02.570Z,80.76
2022-11-29T07:24:30.266Z,80.54
2022-11-29T07:26:59.830Z,80.89
2022-11-29T07:29:27.558Z,80.95
2022-11-29T07:31:55.648Z,80.75
2022-11-29T07:34:23.339Z,80.69
2022-11-29T07:36:50.992Z,80.62
2022-11-29T07:39:19.183Z,80.71
2022-11-29T07:41:48.186Z,80.46
2022-11-29T07:44:15.848Z,80.39
2022-11-29T07:46:43.679Z,80.63
2022-11-29T07:49:11.703Z,80.62
2022-11-29T07:51:39.470Z,80.40
2022-11-29T07:54:09.715Z,80.04
2022-11-29T07:56:37.643Z,80.40
2022-11-29T07:59:05.529Z,80.66
2022-11-29T08:01:33.485Z,80.40
2022-11-29T08:04:01.767Z,80.63
2022-11-29T08:06:29.507Z,80.47
2022-11-29T08:08:57.339Z,80.33
2022-11-29T08:11:25.020Z,80.62
2022-11-29T08:13:52.886Z,80.63
2022-11-29T08:16:21.065Z,80.82
2022-11-29T08:18:49.553Z,80.43
2022-11-29T08:21:18.426Z,80.24
2022-11-29T08:23:46.288Z,80.69
2022-11-29T08:26:14.121Z,80.42
2022-11-29T08:28:42.623Z,80.51
2022-11-29T08:31:11.205Z,81.02
2022-11-29T08:33:39.011Z,80.76
2022-11-29T08:36:06.833Z,80.57
2022-11-29T08:38:35.146Z,80.43
2022-11-29T08:41:04.120Z,80.38
2022-11-29T08:43:31.885Z,80.22
2022-11-29T08:45:59.963Z,80.07
2022-11-29T08:48:27.682Z,80.32
2022-11-29T08:50:55.446Z,80.27
2022-11-29T08:53:41.022Z,80.33
2022-11-29T08:56:41.647Z,80.73
2022-11-29T08:58:58.268Z,80.54
2022-11-29T09:01:26.254Z,80.16
2022-11-29T09:04:08.255Z,80.14
2022-11-29T09:06:49.779Z,80.11
2022-11-29T09:09:17.722Z,80.32
2022-11-29T09:11:49.230Z,79.77
2022-11-29T09:14:18.128Z,79.83
2022-11-29T09:16:56.030Z,79.96
2022-11-29T09:19:24.260Z,79.68
2022-11-29T09:21:52.212Z,79.52
2022-11-29T09:24:21.156Z,79.86
2022-11-29T09:26:49.187Z,79.88
2022-11-29T09:29:17.101Z,79.75
2022-11-29T09:31:45.477Z,79.54
2022-11-29T09:34:13.283Z,79.52
2022-11-29T09:36:41.479Z,79.63
2022-11-29T09:39:12.876Z,79.42
2022-11-29T09:41:44.275Z,79.53
2022-11-29T09:44:16.035Z,79.57
2022-11-29T09:46:44.139Z,79.16
2022-11-29T09:49:14.397Z,79.40
2022-11-29T09:51:44.392Z,79.30
2022-11-29T09:54:12.538Z,79.01
2022-11-29T09:56:40.248Z,79.63
2022-11-29T09:59:08.680Z,79.07
2022-11-29T10:01:36.963Z,79.17
2022-11-29T10:04:04.927Z,79.22
2022-11-29T10:06:34.684Z,79.09
2022-11-29T10:09:02.647Z,79.66
2022-11-29T10:11:31.276Z,78.95
2022-11-29T10:13:59.458Z,79.76
2022-11-29T10:16:27.263Z,79.37
2022-11-29T10:18:55.195Z,79.55
2022-11-29T10:21:23.297Z,79.50
2022-11-29T10:23:52.025Z,79.71
2022-11-29T10:26:23.458Z,79.55
2022-11-29T10:28:51.321Z,79.49
2022-11-29T10:31:19.422Z,79.32
2022-11-29T10:33:47.441Z,79.20
2022-11-29T10:36:15.848Z,79.42
2022-11-29T10:38:44.846Z,79.49
2022-11-29T10:41:12.807Z,79.41
2022-11-29T10:43:40.744Z,78.82
2022-11-29T10:46:08.533Z,79.29
2022-11-29T10:48:36.943Z,79.49
2022-11-29T10:51:04.954Z,79.21
2022-11-29T10:53:32.711Z,79.66
2022-11-29T10:56:00.608Z,79.75
2022-11-29T10:58:29.097Z,79.57
2022-11-29T11:00:57.839Z,79.52
2022-11-29T11:03:26.431Z,79.49
2022-11-29T11:05:54.659Z,78.95
2022-11-29T11:08:22.485Z,79.15
2022-11-29T11:10:54.495Z,78.99
2022-11-29T11:13:24.687Z,78.47
2022-11-29T11:15:52.774Z,78.98
2022-11-29T11:18:20.639Z,78.69
2022-11-29T11:20:48.604Z,78.78
2022-11-29T11:23:16.712Z,78.60
2022-11-29T11:25:44.799Z,78.78
2022-11-29T11:28:15.965Z,78.51
2022-11-29T11:30:44.164Z,78.56
2022-11-29T11:33:12.106Z,78.90
2022-11-29T11:35:39.893Z,79.19
2022-11-29T11:38:07.875Z,78.67
2022-11-29T11:40:36.210Z,79.01
2022-11-29T11:43:04.436Z,78.99
2022-11-29T11:45:32.337Z,78.47
2022-11-29T11:48:00.306Z,78.50
2022-11-29T11:50:29.348Z,78.78
2022-11-29T11:53:00.280Z,78.26
2022-11-29T11:55:28.191Z,78.23
2022-11-29T11:57:56.061Z,78.23
2022-11-29T12:00:40.768Z,78.39
2022-11-29T12:03:12.789Z,77.86
2022-11-29T12:05:44.856Z,77.89
2022-11-29T12:08:14.292Z,78.34
2022-11-29T12:10:42.530Z,77.96
2022-11-29T12:13:10.396Z,77.73
2022-11-29T12:15:38.989Z,78.36
2022-11-29T12:18:07.033Z,78.36
2022-11-29T12:20:34.937Z,78.60
2022-11-29T12:23:02.930Z,78.11
2022-11-29T12:25:30.921Z,78.77
2022-11-29T12:27:59.681Z,78.96
2022-11-29T12:30:28.465Z,78.32
2022-11-29T12:32:56.804Z,78.74
2022-11-29T12:35:24.568Z,78.97
2022-11-29T12:37:52.428Z,78.87
2022-11-29T12:40:24.783Z,79.25
2022-11-29T12:42:52.774Z,78.79
2022-11-29T12:45:20.728Z,78.58
2022-11-29T12:47:51.902Z,78.46
2022-11-29T12:50:20.310Z,78.60
2022-11-29T12:52:49.908Z,78.87
2022-11-29T12:55:17.748Z,78.84
2022-11-29T12:57:45.633Z,78.69
2022-11-29T13:00:13.749Z,78.29
2022-11-29T13:02:41.643Z,78.12
2022-11-29T13:05:10.350Z,78.21
2022-11-29T13:07:38.408Z,78.70
2022-11-29T13:10:06.463Z,78.52
2022-11-29T13:12:34.375Z,78.68
2022-11-29T13:15:02.294Z,78.71
2022-11-29T13:17:31.056Z,78.47
2022-11-29T13:19:58.962Z,78.29
2022-11-29T13:22:26.998Z,78.68
2022-11-29T13:24:55.252Z,78.81
2022-11-29T13:27:23.080Z,78.52
2022-11-29T13:29:51.990Z,78.22
2022-11-29T13:32:19.935Z,78.82
2022-11-29T13:34:48.314Z,78.50
2022-11-29T13:37:16.383Z,78.18
2022-11-29T13:39:44.300Z,78.42
2022-11-29T13:42:12.592Z,77.94
2022-11-29T13:44:40.601Z,77.85
2022-11-29T13:47:08.624Z,77.65
2022-11-29T13:49:36.421Z,78.26
2022-11-29T13:52:05.252Z,78.12
2022-11-29T13:54:34.011Z,77.63
2022-11-29T13:57:02.255Z,77.87
2022-11-29T13:59:30.383Z,77.85
2022-11-29T14:01:58.760Z,78.61
2022-11-29T14:04:26.675Z,78.33
2022-11-29T14:06:56.552Z,78.61
2022-11-29T14:09:24.595Z,78.62
2022-11-29T14:11:52.766Z,78.45
2022-11-29T14:14:20.728Z,78.45
2022-11-29T14:16:48.735Z,79.24
2022-11-29T14:19:20.160Z,79.21
2022-11-29T14:21:48.172Z,78.95
2022-11-29T14:24:16.124Z,79.22
2022-11-29T14:26:44.039Z,78.99
2022-11-29T14:29:11.990Z,79.15
2022-11-29T14:31:40.441Z,78.94
2022-11-29T14:34:08.479Z,79.36
2022-11-29T14:36:36.511Z,79.56
2022-11-29T14:39:04.521Z,79.48
2022-11-29T14:41:32.655Z,79.57
2022-11-29T14:44:03.361Z,79.18
2022-11-29T14:46:31.468Z,79.34
2022-11-29T14:48:59.445Z,79.50
2022-11-29T14:51:27.408Z,79.60
2022-11-29T14:53:55.328Z,79.55
2022-11-29T14:56:23.863Z,79.50
2022-11-29T14:58:51.986Z,79.56
2022-11-29T15:01:19.911Z,79.32
2022-11-29T15:03:48.110Z,79.31
2022-11-29T15:06:16.188Z,79.58
2022-11-29T15:08:44.232Z,79.15
2022-11-29T15:11:12.064Z,79.82
2022-11-29T15:13:40.025Z,79.51
2022-11-29T15:16:09.458Z,79.44
2022-11-29T15:18:37.553Z,79.78
2022-11-29T15:21:06.195Z,80.01
2022-11-29T15:23:34.167Z,79.81
2022-11-29T15:26:02.826Z,79.44
2022-11-29T15:28:30.831Z,79.77
2022-11-29T15:30:58.758Z,79.91
2022-11-29T15:33:26.619Z,79.98
2022-11-29T15:35:54.695Z,79.96
2022-11-29T15:38:22.569Z,79.69
2022-11-29T15:40:53.013Z,79.85
2022-11-29T15:43:21.935Z,79.93
2022-11-29T15:45:50.990Z,79.63
2022-11-29T15:48:18.900Z,79.91
2022-11-29T15:50:46.920Z,79.93
2022-11-29T15:53:14.774Z,79.80
2022-11-29T15:55:42.712Z,79.95
2022-11-29T15:58:12.470Z,79.76
2022-11-29T16:00:40.348Z,79.90
2022-11-29T16:03:08.363Z,79.95
2022-11-29T16:05:36.513Z,80.10
2022-11-29T16:08:04.656Z,79.77
2022-11-29T16:10:35.513Z,79.74
2022-11-29T16:13:03.599Z,79.98
2022-11-29T16:15:31.525Z,79.78
2022-11-29T16:17:59.468Z,79.84
2022-11-29T16:20:27.497Z,79.81
2022-11-29T16:22:57.130Z,80.36
2022-11-29T16:25:24.933Z,79.67
2022-11-29T16:27:52.961Z,79.88
2022-11-29T16:30:21.144Z,79.78
2022-11-29T16:32:49.093Z,79.97
2022-11-29T16:35:17.512Z,80.57
2022-11-29T16:37:45.303Z,79.92
2022-11-29T16:40:13.103Z,80.03
2022-11-29T16:42:41.035Z,80.43
2022-11-29T16:45:09.258Z,79.98
2022-11-29T16:47:45.060Z,80.17
2022-11-29T16:50:13.345Z,80.47
2022-11-29T16:52:41.323Z,79.64
2022-11-29T16:55:09.154Z,80.33
2022-11-29T16:57:37.173Z,80.16
2022-11-29T17:00:06.549Z,79.88
2022-11-29T17:02:34.404Z,80.03
2022-11-29T17:05:02.646Z,80.08
2022-11-29T17:07:30.578Z,80.46
2022-11-29T17:09:58.551Z,80.24
2022-11-29T17:12:27.159Z,80.24
2022-11-29T17:14:55.130Z,80.46
2022-11-29T17:17:22.981Z,80.21
2022-11-29T17:19:51.073Z,80.28
2022-11-29T17:22:18.812Z,80.41
2022-11-29T17:24:48.776Z,80.23
2022-11-29T17:27:16.660Z,80.50
2022-11-29T17:29:44.428Z,80.88
2022-11-29T17:32:12.432Z,80.92
2022-11-29T17:34:40.911Z,80.69
2022-11-29T17:37:11.292Z,80.69
2022-11-29T17:39:39.200Z,81.00
2022-11-29T17:42:07.367Z,80.47
2022-11-29T17:44:35.830Z,80.48
2022-11-29T17:47:03.836Z,80.79
2022-11-29T17:49:32.699Z,80.55
2022-11-29T17:52:00.562Z,80.40
2022-11-29T17:54:28.436Z,80.38
2022-11-29T17:56:56.724Z,80.54
2022-11-29T17:59:24.583Z,80.57
2022-11-29T18:01:52.903Z,80.52
2022-11-29T18:04:21.071Z,80.66
2022-11-29T18:06:50.481Z,80.59
2022-11-29T18:09:18.600Z,80.73
2022-11-29T18:11:49.423Z,80.95
2022-11-29T18:14:19.056Z,80.40
2022-11-29T18:16:47.040Z,80.67
2022-11-29T18:19:15.346Z,80.72
2022-11-29T18:21:43.279Z,80.77
2022-11-29T18:24:11.160Z,80.79
2022-11-29T18:26:41.488Z,80.53
2022-11-29T18:29:09.531Z,80.48
2022-11-29T18:31:37.426Z,80.47
2022-11-29T18:34:07.393Z,80.67
2022-11-29T18:36:35.320Z,80.50
2022-11-29T18:39:03.627Z,80.69
2022-11-29T18:41:32.007Z,80.66
2022-11-29T18:44:00.226Z,80.41
2022-11-29T18:46:32.374Z,80.80
2022-11-29T18:49:00.572Z,80.52
2022-11-29T18:51:30.526Z,80.33
2022-11-29T18:53:58.576Z,80.59
2022-11-29T18:56:26.540Z,80.49
2022-11-29T18:58:58.246Z,80.57
2022-11-29T19:01:26.575Z,80.66
2022-11-29T19:03:55.687Z,80.72
2022-11-29T19:06:23.865Z,80.59
2022-11-29T19:08:51.663Z,80.43
2022-11-29T19:11:19.709Z,80.98
2022-11-29T19:13:47.536Z,80.63
2022-11-29T19:16:16.522Z,80.59
2022-11-29T19:18:44.458Z,80.67
2022-11-29T19:21:12.323Z,80.63
2022-11-29T19:23:40.477Z,80.75
2022-11-29T19:26:08.495Z,80.64
2022-11-29T19:28:36.373Z,80.45
2022-11-29T19:31:05.145Z,80.69
2022-11-29T19:33:33.111Z,80.71
2022-11-29T19:36:00.948Z,80.81
2022-11-29T19:38:28.796Z,80.69
2022-11-29T19:40:58.260Z,80.56
2022-11-29T19:43:26.104Z,80.40
2022-11-29T19:45:54.037Z,80.95
2022-11-29T19:48:22.039Z,80.60
2022-11-29T19:50:49.923Z,80.62
2022-11-29T19:53:18.441Z,80.82
2022-11-29T19:55:46.279Z,80.62
2022-11-29T19:58:14.248Z,80.49
2022-11-29T20:00:42.071Z,80.40
2022-11-29T20:03:10.088Z,80.71
2022-11-29T20:05:41.659Z,80.96
2022-11-29T20:08:09.533Z,80.74
2022-11-29T20:10:37.538Z,80.67
2022-11-29T20:13:05.405Z,80.87
2022-11-29T20:15:33.278Z,80.49
2022-11-29T20:18:03.099Z,80.57
2022-11-29T20:20:31.215Z,80.79
2022-11-29T20:22:59.297Z,80.96
2022-11-29T20:25:27.454Z,80.80
2022-11-29T20:27:55.600Z,80.35
2022-11-29T20:30:24.019Z,80.75
2022-11-29T20:32:51.944Z,80.65
2022-11-29T20:35:19.688Z,80.58
2022-11-29T20:37:47.821Z,80.62
2022-11-29T20:40:15.657Z,80.26
2022-11-29T20:42:44.992Z,80.46
2022-11-29T20:45:12.941Z,80.65
2022-11-29T20:47:40.976Z,80.78
2022-11-29T20:50:10.897Z,80.57
2022-11-29T20:52:38.753Z,80.91
2022-11-29T20:55:07.171Z,80.72
2022-11-29T20:57:35.033Z,80.64
2022-11-29T21:00:02.824Z,80.83
2022-11-29T21:02:30.834Z,80.29
2022-11-29T21:04:58.658Z,80.75
2022-11-29T21:07:26.865Z,80.76
2022-11-29T21:10:00.746Z,80.96
2022-11-29T21:12:29.367Z,80.75
2022-11-29T21:14:57.250Z,81.01
2022-11-29T21:17:30.204Z,80.63
2022-11-29T21:20:03.349Z,80.75
2022-11-29T21:22:31.245Z,80.96
2022-11-29T21:24:59.176Z,81.20
2022-11-29T21:27:27.144Z,80.87
2022-11-29T21:29:54.941Z,81.14
2022-11-29T21:32:24.581Z,80.66
2022-11-29T21:34:52.636Z,80.67
2022-11-29T21:37:20.487Z,80.65
2022-11-29T21:39:48.357Z,80.87
2022-11-29T21:42:16.298Z,81.15
2022-11-29T21:44:45.547Z,81.30
2022-11-29T21:47:13.396Z,80.92
2022-11-29T21:49:41.236Z,81.54
2022-11-29T21:52:09.187Z,81.29
2022-11-29T21:54:37.277Z,81.17
2022-11-29T21:57:06.469Z,80.89
2022-11-29T21:59:34.256Z,80.98
2022-11-29T22:02:02.456Z,80.91
2022-11-29T22:04:30.479Z,81.11
2022-11-29T22:06:58.294Z,81.21
2022-11-29T22:09:26.799Z,80.96
2022-11-29T22:11:54.693Z,81.13
2022-11-29T22:14:22.452Z,80.90
2022-11-29T22:16:50.421Z,81.11
2022-11-29T22:19:18.330Z,81.24
2022-11-29T22:21:46.424Z,81.26
2022-11-29T22:24:14.167Z,80.95
2022-11-29T22:26:43.909Z,81.15
2022-11-29T22:29:11.735Z,81.16
2022-11-29T22:31:39.597Z,80.95
2022-11-29T22:34:08.306Z,80.95
2022-11-29T22:36:36.264Z,81.11
2022-11-29T22:39:04.345Z,81.09
2022-11-29T22:41:32.085Z,81.07
2022-11-29T22:43:59.916Z,81.19
2022-11-29T22:46:29.809Z,81.07
2022-11-29T22:48:57.697Z,80.90
2022-11-29T22:51:25.478Z,80.92
2022-11-29T22:53:53.259Z,81.18
2022-11-29T22:56:21.061Z,80.88
2022-11-29T22:58:49.146Z,81.24
2022-11-29T23:01:17.246Z,81.40
2022-11-29T23:03:45.290Z,81.63
2022-11-29T23:06:13.153Z,81.15
2022-11-29T23:08:40.962Z,81.07
2022-11-29T23:11:10.721Z,81.24
2022-11-29T23:13:38.376Z,81.17
2022-11-29T23:16:06.109Z,81.15
2022-11-29T23:18:33.876Z,81.23
2022-11-29T23:21:01.558Z,81.16
2022-11-29T23:23:32.912Z,81.34
2022-11-29T23:26:00.626Z,81.29
2022-11-29T23:28:28.231Z,81.32
2022-11-29T23:30:55.895Z,81.12
2022-11-29T23:33:23.583Z,80.98
2022-11-29T23:35:51.829Z,81.15
2022-11-29T23:38:19.464Z,81.47
2022-11-29T23:40:47.223Z,81.18
2022-11-29T23:43:14.821Z,81.36
2022-11-29T23:45:42.553Z,81.29
2022-11-29T23:48:10.791Z,81.08
2022-11-29T23:50:38.436Z,81.21
2022-11-29T23:53:06.130Z,81.61
2022-11-29T23:55:33.866Z,81.28
2022-11-29T23:58:01.515Z,81.38
